sensor_id;sensor_type;location;lat;lon;timestamp;pressure;altitude;pressure_sealevel;temperature;humidity
58757;BME280;44527;47.460;19.016;2023-06-22T00:01:41;100504.09;;;21.84;100.00
58757;BME280;44527;47.460;19.016;2023-06-22T00:04:44;100505.63;;;21.86;100.00
58757;BME280;44527;47.460;19.016;2023-06-22T00:07:46;100505.75;;;21.85;100.00
58757;BME280;44527;47.460;19.016;2023-06-22T00:10:48;100508.44;;;21.85;100.00
58757;BME280;44527;47.460;19.016;2023-06-22T00:13:51;100505.81;;;21.76;100.00
58757;BME280;44527;47.460;19.016;2023-06-22T00:16:54;100520.00;;;21.77;100.00
58757;BME280;44527;47.460;19.016;2023-06-22T00:20:01;100524.84;;;21.73;100.00
58757;BME280;44527;47.460;19.016;2023-06-22T00:23:05;100514.16;;;21.73;100.00
58757;BME280;44527;47.460;19.016;2023-06-22T00:26:11;100506.16;;;21.73;100.00
58757;BME280;44527;47.460;19.016;2023-06-22T00:29:14;100509.97;;;21.71;100.00
58757;BME280;44527;47.460;19.016;2023-06-22T00:32:16;100511.50;;;21.57;100.00
58757;BME280;44527;47.460;19.016;2023-06-22T00:35:21;100515.50;;;21.61;100.00
58757;BME280;44527;47.460;19.016;2023-06-22T00:38:24;100535.69;;;21.64;100.00
58757;BME280;44527;47.460;19.016;2023-06-22T00:41:26;100528.00;;;21.61;100.00
58757;BME280;44527;47.460;19.016;2023-06-22T00:44:30;100528.19;;;21.67;100.00
58757;BME280;44527;47.460;19.016;2023-06-22T00:47:37;100538.87;;;21.67;100.00
58757;BME280;44527;47.460;19.016;2023-06-22T00:50:40;100541.69;;;21.66;100.00
58757;BME280;44527;47.460;19.016;2023-06-22T00:53:43;100531.19;;;21.64;100.00
58757;BME280;44527;47.460;19.016;2023-06-22T00:56:45;100531.00;;;21.57;100.00
58757;BME280;44527;47.460;19.016;2023-06-22T00:59:48;100526.69;;;21.48;100.00
58757;BME280;44527;47.460;19.016;2023-06-22T01:02:51;100522.31;;;21.64;100.00
58757;BME280;44527;47.460;19.016;2023-06-22T01:06:02;100518.19;;;21.61;100.00
58757;BME280;44527;47.460;19.016;2023-06-22T01:09:28;100513.19;;;21.50;100.00
58757;BME280;44527;47.460;19.016;2023-06-22T01:12:38;100514.19;;;21.41;100.00
58757;BME280;44527;47.460;19.016;2023-06-22T01:15:53;100521.38;;;21.40;100.00
58757;BME280;44527;47.460;19.016;2023-06-22T01:19:01;100512.19;;;21.43;100.00
58757;BME280;44527;47.460;19.016;2023-06-22T01:22:06;100519.03;;;21.37;100.00
58757;BME280;44527;47.460;19.016;2023-06-22T01:25:31;100515.53;;;21.37;100.00
58757;BME280;44527;47.460;19.016;2023-06-22T01:28:54;100506.16;;;21.41;100.00
58757;BME280;44527;47.460;19.016;2023-06-22T01:31:59;100508.81;;;21.24;100.00
58757;BME280;44527;47.460;19.016;2023-06-22T01:35:05;100510.66;;;21.16;100.00
58757;BME280;44527;47.460;19.016;2023-06-22T01:38:09;100503.47;;;21.24;100.00
58757;BME280;44527;47.460;19.016;2023-06-22T01:41:12;100499.97;;;21.24;100.00
58757;BME280;44527;47.460;19.016;2023-06-22T01:44:15;100503.66;;;21.31;100.00
58757;BME280;44527;47.460;19.016;2023-06-22T01:47:18;100495.63;;;21.23;100.00
58757;BME280;44527;47.460;19.016;2023-06-22T01:50:21;100503.12;;;21.19;100.00
58757;BME280;44527;47.460;19.016;2023-06-22T01:53:24;100499.47;;;21.12;100.00
58757;BME280;44527;47.460;19.016;2023-06-22T01:56:27;100492.78;;;21.16;100.00
58757;BME280;44527;47.460;19.016;2023-06-22T02:02:43;100499.62;;;21.10;100.00
58757;BME280;44527;47.460;19.016;2023-06-22T02:05:50;100512.31;;;21.17;100.00
58757;BME280;44527;47.460;19.016;2023-06-22T02:08:59;100508.81;;;21.16;100.00
58757;BME280;44527;47.460;19.016;2023-06-22T02:12:04;100514.13;;;21.08;100.00
58757;BME280;44527;47.460;19.016;2023-06-22T02:15:09;100519.81;;;21.13;100.00
58757;BME280;44527;47.460;19.016;2023-06-22T02:18:12;100515.63;;;21.10;100.00
58757;BME280;44527;47.460;19.016;2023-06-22T02:21:15;100512.97;;;21.10;100.00
58757;BME280;44527;47.460;19.016;2023-06-22T02:24:17;100517.66;;;21.17;100.00
58757;BME280;44527;47.460;19.016;2023-06-22T02:27:20;100521.31;;;21.24;100.00
58757;BME280;44527;47.460;19.016;2023-06-22T02:30:23;100526.34;;;21.19;100.00
58757;BME280;44527;47.460;19.016;2023-06-22T02:33:25;100526.16;;;21.28;100.00
58757;BME280;44527;47.460;19.016;2023-06-22T02:36:27;100541.16;;;21.29;100.00
58757;BME280;44527;47.460;19.016;2023-06-22T02:39:35;100538.00;;;21.26;100.00
58757;BME280;44527;47.460;19.016;2023-06-22T02:42:39;100542.37;;;21.43;100.00
58757;BME280;44527;47.460;19.016;2023-06-22T02:45:43;100543.88;;;21.38;100.00
58757;BME280;44527;47.460;19.016;2023-06-22T02:48:45;100540.22;;;21.39;100.00
58757;BME280;44527;47.460;19.016;2023-06-22T02:51:49;100537.38;;;21.40;100.00
58757;BME280;44527;47.460;19.016;2023-06-22T02:54:52;100535.69;;;21.47;100.00
58757;BME280;44527;47.460;19.016;2023-06-22T02:57:55;100535.34;;;21.42;100.00
58757;BME280;44527;47.460;19.016;2023-06-22T03:00:57;100533.34;;;21.36;100.00
58757;BME280;44527;47.460;19.016;2023-06-22T03:04:00;100535.19;;;21.36;100.00
58757;BME280;44527;47.460;19.016;2023-06-22T03:07:03;100542.88;;;21.30;100.00
58757;BME280;44527;47.460;19.016;2023-06-22T03:10:10;100536.16;;;21.26;100.00
58757;BME280;44527;47.460;19.016;2023-06-22T03:13:13;100545.34;;;21.32;100.00
58757;BME280;44527;47.460;19.016;2023-06-22T03:16:16;100545.53;;;21.30;100.00
58757;BME280;44527;47.460;19.016;2023-06-22T03:19:18;100534.66;;;21.24;100.00
58757;BME280;44527;47.460;19.016;2023-06-22T03:22:21;100549.53;;;21.18;100.00
58757;BME280;44527;47.460;19.016;2023-06-22T03:25:24;100550.50;;;21.17;100.00
58757;BME280;44527;47.460;19.016;2023-06-22T03:28:26;100547.66;;;21.10;100.00
58757;BME280;44527;47.460;19.016;2023-06-22T03:31:29;100548.00;;;21.07;100.00
58757;BME280;44527;47.460;19.016;2023-06-22T03:34:32;100545.16;;;21.17;100.00
58757;BME280;44527;47.460;19.016;2023-06-22T03:37:36;100551.53;;;21.24;100.00
58757;BME280;44527;47.460;19.016;2023-06-22T03:40:39;100547.00;;;21.33;100.00
58757;BME280;44527;47.460;19.016;2023-06-22T03:43:41;100536.03;;;21.36;100.00
58757;BME280;44527;47.460;19.016;2023-06-22T03:46:44;100530.19;;;21.41;100.00
58757;BME280;44527;47.460;19.016;2023-06-22T03:49:47;100529.00;;;21.51;100.00
58757;BME280;44527;47.460;19.016;2023-06-22T03:52:49;100533.84;;;21.48;100.00
58757;BME280;44527;47.460;19.016;2023-06-22T03:55:55;100535.72;;;21.55;100.00
58757;BME280;44527;47.460;19.016;2023-06-22T03:58:58;100547.91;;;21.58;100.00
58757;BME280;44527;47.460;19.016;2023-06-22T04:02:00;100540.38;;;21.62;100.00
58757;BME280;44527;47.460;19.016;2023-06-22T04:05:03;100546.53;;;21.78;100.00
58757;BME280;44527;47.460;19.016;2023-06-22T04:08:06;100534.81;;;21.88;100.00
58757;BME280;44527;47.460;19.016;2023-06-22T04:11:09;100544.97;;;22.00;100.00
58757;BME280;44527;47.460;19.016;2023-06-22T04:14:13;100552.88;;;21.86;100.00
58757;BME280;44527;47.460;19.016;2023-06-22T04:17:16;100549.63;;;22.07;100.00
58757;BME280;44527;47.460;19.016;2023-06-22T04:20:19;100550.16;;;22.10;100.00
58757;BME280;44527;47.460;19.016;2023-06-22T04:23:22;100558.81;;;22.29;100.00
58757;BME280;44527;47.460;19.016;2023-06-22T04:26:24;100563.47;;;22.35;100.00
58757;BME280;44527;47.460;19.016;2023-06-22T04:29:27;100561.81;;;22.65;100.00
58757;BME280;44527;47.460;19.016;2023-06-22T04:32:32;100567.72;;;22.91;100.00
58757;BME280;44527;47.460;19.016;2023-06-22T04:35:35;100556.69;;;22.94;100.00
58757;BME280;44527;47.460;19.016;2023-06-22T04:38:37;100562.13;;;23.09;100.00
58757;BME280;44527;47.460;19.016;2023-06-22T04:41:40;100562.19;;;23.24;99.33
58757;BME280;44527;47.460;19.016;2023-06-22T04:44:45;100572.44;;;23.35;96.32
58757;BME280;44527;47.460;19.016;2023-06-22T04:47:48;100568.16;;;24.25;94.78
58757;BME280;44527;47.460;19.016;2023-06-22T04:50:51;100581.00;;;25.10;88.54
58757;BME280;44527;47.460;19.016;2023-06-22T04:53:56;100586.31;;;25.25;83.57
58757;BME280;44527;47.460;19.016;2023-06-22T04:57:04;100579.13;;;25.97;81.27
58757;BME280;44527;47.460;19.016;2023-06-22T05:00:12;100582.00;;;26.65;79.61
58757;BME280;44527;47.460;19.016;2023-06-22T05:03:15;100587.44;;;27.46;73.12
58757;BME280;44527;47.460;19.016;2023-06-22T05:06:23;100587.41;;;27.33;71.41
58757;BME280;44527;47.460;19.016;2023-06-22T05:09:26;100585.34;;;27.48;72.16
58757;BME280;44527;47.460;19.016;2023-06-22T05:12:29;100595.41;;;28.52;69.67
58757;BME280;44527;47.460;19.016;2023-06-22T05:15:32;100594.25;;;28.86;66.20
58757;BME280;44527;47.460;19.016;2023-06-22T05:18:39;100597.19;;;27.93;70.29
58757;BME280;44527;47.460;19.016;2023-06-22T05:21:41;100606.25;;;27.26;76.64
58757;BME280;44527;47.460;19.016;2023-06-22T05:24:44;100610.53;;;27.14;75.89
58757;BME280;44527;47.460;19.016;2023-06-22T05:27:46;100613.59;;;26.91;76.07
58757;BME280;44527;47.460;19.016;2023-06-22T05:30:48;100610.34;;;26.54;78.24
58757;BME280;44527;47.460;19.016;2023-06-22T05:33:52;100610.53;;;26.59;77.57
58757;BME280;44527;47.460;19.016;2023-06-22T05:36:55;100604.66;;;26.42;78.45
58757;BME280;44527;47.460;19.016;2023-06-22T05:39:59;100610.03;;;26.42;79.72
58757;BME280;44527;47.460;19.016;2023-06-22T05:43:02;100610.16;;;26.69;78.90
58757;BME280;44527;47.460;19.016;2023-06-22T05:46:04;100622.22;;;27.27;75.64
58757;BME280;44527;47.460;19.016;2023-06-22T05:49:08;100635.38;;;27.90;72.49
58757;BME280;44527;47.460;19.016;2023-06-22T05:52:10;100629.72;;;28.32;68.11
58757;BME280;44527;47.460;19.016;2023-06-22T05:55:15;100632.22;;;28.98;66.84
58757;BME280;44527;47.460;19.016;2023-06-22T05:58:17;100631.53;;;30.85;59.06
58757;BME280;44527;47.460;19.016;2023-06-22T06:01:21;100643.34;;;32.28;54.46
58757;BME280;44527;47.460;19.016;2023-06-22T06:04:24;100646.94;;;32.69;52.39
58757;BME280;44527;47.460;19.016;2023-06-22T06:07:28;100641.66;;;33.77;49.22
58757;BME280;44527;47.460;19.016;2023-06-22T06:10:31;100642.62;;;34.21;47.92
58757;BME280;44527;47.460;19.016;2023-06-22T06:13:35;100639.78;;;34.72;46.28
58757;BME280;44527;47.460;19.016;2023-06-22T06:16:37;100639.81;;;35.21;45.25
58757;BME280;44527;47.460;19.016;2023-06-22T06:19:40;100644.16;;;35.49;43.77
58757;BME280;44527;47.460;19.016;2023-06-22T06:22:42;100645.72;;;35.67;41.09
58757;BME280;44527;47.460;19.016;2023-06-22T06:25:46;100640.37;;;36.20;41.47
58757;BME280;44527;47.460;19.016;2023-06-22T06:28:48;100643.06;;;36.62;39.66
58757;BME280;44527;47.460;19.016;2023-06-22T06:31:51;100635.56;;;36.42;38.46
58757;BME280;44527;47.460;19.016;2023-06-22T06:34:56;100634.56;;;36.53;38.72
58757;BME280;44527;47.460;19.016;2023-06-22T06:37:58;100630.09;;;36.42;39.07
58757;BME280;44527;47.460;19.016;2023-06-22T06:41:01;100633.03;;;36.83;38.69
58757;BME280;44527;47.460;19.016;2023-06-22T06:44:03;100625.81;;;37.50;37.29
58757;BME280;44527;47.460;19.016;2023-06-22T06:47:06;100623.28;;;37.18;37.03
58757;BME280;44527;47.460;19.016;2023-06-22T06:50:08;100627.94;;;37.89;34.69
58757;BME280;44527;47.460;19.016;2023-06-22T06:53:12;100627.59;;;38.26;33.02
58757;BME280;44527;47.460;19.016;2023-06-22T06:56:14;100620.81;;;37.88;34.20
58757;BME280;44527;47.460;19.016;2023-06-22T06:59:17;100623.28;;;38.80;32.53
58757;BME280;44527;47.460;19.016;2023-06-22T07:02:20;100619.38;;;38.31;32.84
58757;BME280;44527;47.460;19.016;2023-06-22T07:05:23;100615.63;;;37.35;32.70
58757;BME280;44527;47.460;19.016;2023-06-22T07:08:25;100621.03;;;38.22;33.06
58757;BME280;44527;47.460;19.016;2023-06-22T07:11:28;100618.34;;;38.07;32.94
58757;BME280;44527;47.460;19.016;2023-06-22T07:14:30;100624.56;;;38.43;32.83
58757;BME280;44527;47.460;19.016;2023-06-22T07:17:34;100626.06;;;38.75;31.34
58757;BME280;44527;47.460;19.016;2023-06-22T07:20:37;100619.72;;;38.79;31.53
58757;BME280;44527;47.460;19.016;2023-06-22T07:23:41;100613.37;;;39.68;30.19
58757;BME280;44527;47.460;19.016;2023-06-22T07:26:44;100609.16;;;40.05;30.19
58757;BME280;44527;47.460;19.016;2023-06-22T07:29:51;100611.72;;;39.67;29.48
58757;BME280;44527;47.460;19.016;2023-06-22T07:32:56;100608.78;;;39.58;29.54
58757;BME280;44527;47.460;19.016;2023-06-22T07:36:00;100621.00;;;38.43;30.82
58757;BME280;44527;47.460;19.016;2023-06-22T07:39:03;100618.94;;;38.69;31.78
58757;BME280;44527;47.460;19.016;2023-06-22T07:42:06;100607.94;;;38.79;31.67
58757;BME280;44527;47.460;19.016;2023-06-22T07:45:08;100605.06;;;39.04;30.55
58757;BME280;44527;47.460;19.016;2023-06-22T07:48:11;100600.25;;;39.25;30.73
58757;BME280;44527;47.460;19.016;2023-06-22T07:51:13;100599.81;;;39.08;31.26
58757;BME280;44527;47.460;19.016;2023-06-22T07:54:17;100604.16;;;39.53;29.23
58757;BME280;44527;47.460;19.016;2023-06-22T07:57:20;100602.87;;;39.75;28.83
58757;BME280;44527;47.460;19.016;2023-06-22T08:00:22;100600.78;;;38.88;30.68
58757;BME280;44527;47.460;19.016;2023-06-22T08:03:26;100593.69;;;38.07;32.44
58757;BME280;44527;47.460;19.016;2023-06-22T08:06:32;100598.91;;;38.03;31.57
58757;BME280;44527;47.460;19.016;2023-06-22T08:09:35;100592.63;;;37.77;32.11
58757;BME280;44527;47.460;19.016;2023-06-22T08:12:38;100586.06;;;37.68;31.71
58757;BME280;44527;47.460;19.016;2023-06-22T08:15:44;100590.72;;;37.52;31.93
58757;BME280;44527;47.460;19.016;2023-06-22T08:19:37;100586.81;;;36.92;33.60
58757;BME280;44527;47.460;19.016;2023-06-22T08:22:43;100578.53;;;36.03;34.29
58757;BME280;44527;47.460;19.016;2023-06-22T08:25:46;100587.06;;;35.75;35.49
58757;BME280;44527;47.460;19.016;2023-06-22T08:28:50;100585.69;;;34.86;36.43
58757;BME280;44527;47.460;19.016;2023-06-22T08:31:52;100583.03;;;35.18;35.67
58757;BME280;44527;47.460;19.016;2023-06-22T08:34:56;100581.19;;;35.02;36.65
58757;BME280;44527;47.460;19.016;2023-06-22T08:37:59;100574.34;;;34.50;38.73
58757;BME280;44527;47.460;19.016;2023-06-22T08:41:02;100565.28;;;34.44;39.96
58757;BME280;44527;47.460;19.016;2023-06-22T08:44:05;100574.34;;;34.28;39.89
58757;BME280;44527;47.460;19.016;2023-06-22T08:47:07;100572.94;;;33.86;39.95
58757;BME280;44527;47.460;19.016;2023-06-22T08:50:10;100568.50;;;33.47;40.88
58757;BME280;44527;47.460;19.016;2023-06-22T08:53:14;100570.03;;;33.42;41.67
58757;BME280;44527;47.460;19.016;2023-06-22T08:56:16;100563.31;;;33.62;41.15
58757;BME280;44527;47.460;19.016;2023-06-22T08:59:19;100558.91;;;33.44;43.39
58757;BME280;44527;47.460;19.016;2023-06-22T09:02:21;100558.31;;;33.08;42.00
58757;BME280;44527;47.460;19.016;2023-06-22T09:05:24;100549.19;;;32.86;42.54
58757;BME280;44527;47.460;19.016;2023-06-22T09:08:28;100551.91;;;32.86;43.30
58757;BME280;44527;47.460;19.016;2023-06-22T09:11:31;100554.12;;;32.89;44.99
58757;BME280;44527;47.460;19.016;2023-06-22T09:14:34;100543.19;;;32.72;44.40
58757;BME280;44527;47.460;19.016;2023-06-22T09:17:36;100542.50;;;32.77;44.14
58757;BME280;44527;47.460;19.016;2023-06-22T09:20:39;100541.66;;;33.05;43.00
58757;BME280;44527;47.460;19.016;2023-06-22T09:23:41;100530.88;;;32.53;43.49
58757;BME280;44527;47.460;19.016;2023-06-22T09:26:44;100529.56;;;32.84;43.49
58757;BME280;44527;47.460;19.016;2023-06-22T09:29:46;100531.63;;;32.93;44.43
58757;BME280;44527;47.460;19.016;2023-06-22T09:32:49;100533.69;;;32.86;45.15
58757;BME280;44527;47.460;19.016;2023-06-22T09:35:52;100537.88;;;33.23;43.28
58757;BME280;44527;47.460;19.016;2023-06-22T09:38:54;100531.56;;;33.51;42.86
58757;BME280;44527;47.460;19.016;2023-06-22T09:42:01;100531.03;;;33.03;43.46
58757;BME280;44527;47.460;19.016;2023-06-22T09:45:03;100528.91;;;33.22;44.36
58757;BME280;44527;47.460;19.016;2023-06-22T09:48:06;100530.62;;;33.11;43.61
58757;BME280;44527;47.460;19.016;2023-06-22T09:51:09;100531.78;;;32.87;44.53
58757;BME280;44527;47.460;19.016;2023-06-22T09:54:11;100524.44;;;32.70;45.05
58757;BME280;44527;47.460;19.016;2023-06-22T09:57:14;100519.13;;;32.92;43.72
58757;BME280;44527;47.460;19.016;2023-06-22T10:00:17;100518.41;;;32.68;44.00
58757;BME280;44527;47.460;19.016;2023-06-22T10:03:21;100516.09;;;32.60;44.43
58757;BME280;44527;47.460;19.016;2023-06-22T10:06:24;100524.78;;;32.74;44.19
58757;BME280;44527;47.460;19.016;2023-06-22T10:09:27;100522.91;;;32.91;43.35
58757;BME280;44527;47.460;19.016;2023-06-22T10:12:32;100513.75;;;32.81;43.59
58757;BME280;44527;47.460;19.016;2023-06-22T10:15:35;100511.16;;;33.03;43.87
58757;BME280;44527;47.460;19.016;2023-06-22T10:18:37;100521.06;;;33.09;43.73
58757;BME280;44527;47.460;19.016;2023-06-22T10:21:40;100518.75;;;32.72;42.72
58757;BME280;44527;47.460;19.016;2023-06-22T10:24:42;100517.22;;;32.76;43.55
58757;BME280;44527;47.460;19.016;2023-06-22T10:27:47;100506.62;;;32.63;43.71
58757;BME280;44527;47.460;19.016;2023-06-22T10:30:49;100503.69;;;32.81;44.69
58757;BME280;44527;47.460;19.016;2023-06-22T10:33:52;100503.88;;;32.91;44.80
58757;BME280;44527;47.460;19.016;2023-06-22T10:36:55;100499.88;;;33.11;44.34
58757;BME280;44527;47.460;19.016;2023-06-22T10:39:58;100506.97;;;33.12;43.24
58757;BME280;44527;47.460;19.016;2023-06-22T10:43:01;100499.69;;;32.55;43.99
58757;BME280;44527;47.460;19.016;2023-06-22T10:46:06;100504.31;;;32.55;44.66
58757;BME280;44527;47.460;19.016;2023-06-22T10:49:08;100496.28;;;32.77;44.18
58757;BME280;44527;47.460;19.016;2023-06-22T10:52:11;100489.16;;;32.59;43.38
58757;BME280;44527;47.460;19.016;2023-06-22T10:55:16;100492.38;;;32.56;45.09
58757;BME280;44527;47.460;19.016;2023-06-22T10:58:19;100495.63;;;32.69;44.37
58757;BME280;44527;47.460;19.016;2023-06-22T11:01:21;100494.72;;;33.09;44.59
58757;BME280;44527;47.460;19.016;2023-06-22T11:04:38;100498.50;;;32.80;44.17
58757;BME280;44527;47.460;19.016;2023-06-22T11:07:43;100492.62;;;32.54;45.28
58757;BME280;44527;47.460;19.016;2023-06-22T11:10:51;100498.91;;;32.71;44.92
58757;BME280;44527;47.460;19.016;2023-06-22T11:13:53;100499.50;;;32.73;43.58
58757;BME280;44527;47.460;19.016;2023-06-22T11:16:56;100496.25;;;33.05;43.69
58757;BME280;44527;47.460;19.016;2023-06-22T11:19:58;100495.09;;;33.01;42.22
58757;BME280;44527;47.460;19.016;2023-06-22T11:23:04;100483.56;;;32.94;44.23
58757;BME280;44527;47.460;19.016;2023-06-22T11:26:15;100481.19;;;32.98;45.11
58757;BME280;44527;47.460;19.016;2023-06-22T11:29:17;100481.25;;;33.03;43.25
58757;BME280;44527;47.460;19.016;2023-06-22T11:32:37;100472.62;;;32.77;43.39
58757;BME280;44527;47.460;19.016;2023-06-22T11:35:40;100470.50;;;32.96;43.15
58757;BME280;44527;47.460;19.016;2023-06-22T11:38:43;100467.78;;;32.96;42.13
58757;BME280;44527;47.460;19.016;2023-06-22T11:41:45;100469.59;;;32.73;43.30
58757;BME280;44527;47.460;19.016;2023-06-22T11:44:48;100468.19;;;32.71;43.49
58757;BME280;44527;47.460;19.016;2023-06-22T11:47:50;100469.50;;;32.68;43.63
58757;BME280;44527;47.460;19.016;2023-06-22T11:50:53;100467.22;;;32.77;44.45
58757;BME280;44527;47.460;19.016;2023-06-22T11:53:59;100464.66;;;32.70;43.30
58757;BME280;44527;47.460;19.016;2023-06-22T11:57:02;100457.97;;;33.07;42.37
58757;BME280;44527;47.460;19.016;2023-06-22T12:00:05;100461.66;;;33.34;43.05
58757;BME280;44527;47.460;19.016;2023-06-22T12:03:16;100455.28;;;33.62;42.00
58757;BME280;44527;47.460;19.016;2023-06-22T12:06:18;100451.31;;;33.92;41.37
58757;BME280;44527;47.460;19.016;2023-06-22T12:09:21;100453.44;;;34.07;40.80
58757;BME280;44527;47.460;19.016;2023-06-22T12:12:24;100451.78;;;34.06;40.62
58757;BME280;44527;47.460;19.016;2023-06-22T12:15:27;100446.19;;;34.18;38.47
58757;BME280;44527;47.460;19.016;2023-06-22T12:18:29;100438.31;;;33.99;39.34
58757;BME280;44527;47.460;19.016;2023-06-22T12:21:32;100435.03;;;33.75;40.56
58757;BME280;44527;47.460;19.016;2023-06-22T12:24:34;100433.19;;;33.42;41.73
58757;BME280;44527;47.460;19.016;2023-06-22T12:27:37;100425.22;;;33.52;42.79
58757;BME280;44527;47.460;19.016;2023-06-22T12:30:39;100423.31;;;33.53;40.40
58757;BME280;44527;47.460;19.016;2023-06-22T12:33:42;100424.84;;;33.66;40.23
58757;BME280;44527;47.460;19.016;2023-06-22T12:36:44;100418.78;;;33.80;39.41
58757;BME280;44527;47.460;19.016;2023-06-22T12:39:49;100411.94;;;33.56;38.98
58757;BME280;44527;47.460;19.016;2023-06-22T12:42:51;100414.22;;;33.47;41.27
58757;BME280;44527;47.460;19.016;2023-06-22T12:45:54;100413.31;;;33.41;39.30
58757;BME280;44527;47.460;19.016;2023-06-22T12:48:56;100419.25;;;33.38;40.86
58757;BME280;44527;47.460;19.016;2023-06-22T12:51:59;100411.88;;;33.34;40.93
58757;BME280;44527;47.460;19.016;2023-06-22T12:55:02;100403.34;;;33.47;40.04
58757;BME280;44527;47.460;19.016;2023-06-22T12:58:04;100415.03;;;33.65;40.23
58757;BME280;44527;47.460;19.016;2023-06-22T13:01:07;100406.53;;;33.61;41.70
58757;BME280;44527;47.460;19.016;2023-06-22T13:04:09;100409.94;;;33.73;39.67
58757;BME280;44527;47.460;19.016;2023-06-22T13:07:13;100407.50;;;33.72;39.15
58757;BME280;44527;47.460;19.016;2023-06-22T13:10:25;100407.38;;;33.61;41.15
58757;BME280;44527;47.460;19.016;2023-06-22T13:13:27;100389.97;;;33.62;40.11
58757;BME280;44527;47.460;19.016;2023-06-22T13:16:30;100385.84;;;33.82;40.04
58757;BME280;44527;47.460;19.016;2023-06-22T13:19:33;100390.16;;;33.78;40.93
58757;BME280;44527;47.460;19.016;2023-06-22T13:22:35;100381.41;;;33.76;41.77
58757;BME280;44527;47.460;19.016;2023-06-22T13:25:47;100382.53;;;33.58;42.58
58757;BME280;44527;47.460;19.016;2023-06-22T13:28:50;100370.00;;;33.18;44.37
58757;BME280;44527;47.460;19.016;2023-06-22T13:31:52;100384.72;;;33.00;44.46
58757;BME280;44527;47.460;19.016;2023-06-22T13:34:59;100376.94;;;32.75;46.30
58757;BME280;44527;47.460;19.016;2023-06-22T13:38:02;100382.13;;;32.60;46.14
58757;BME280;44527;47.460;19.016;2023-06-22T13:41:05;100373.22;;;32.81;45.78
58757;BME280;44527;47.460;19.016;2023-06-22T13:44:08;100374.66;;;33.01;43.80
58757;BME280;44527;47.460;19.016;2023-06-22T13:47:11;100362.63;;;33.13;42.05
58757;BME280;44527;47.460;19.016;2023-06-22T13:50:13;100367.44;;;33.28;41.36
58757;BME280;44527;47.460;19.016;2023-06-22T13:53:16;100357.25;;;33.18;43.26
58757;BME280;44527;47.460;19.016;2023-06-22T13:56:18;100362.31;;;33.32;42.09
58757;BME280;44527;47.460;19.016;2023-06-22T13:59:21;100354.34;;;33.25;43.04
58757;BME280;44527;47.460;19.016;2023-06-22T14:02:25;100350.41;;;33.16;44.51
58757;BME280;44527;47.460;19.016;2023-06-22T14:05:28;100360.53;;;33.21;42.92
58757;BME280;44527;47.460;19.016;2023-06-22T14:08:31;100354.59;;;33.24;44.78
58757;BME280;44527;47.460;19.016;2023-06-22T14:11:43;100352.19;;;33.27;42.78
58757;BME280;44527;47.460;19.016;2023-06-22T14:14:46;100352.53;;;33.31;44.85
58757;BME280;44527;47.460;19.016;2023-06-22T14:17:49;100340.47;;;33.27;44.95
58757;BME280;44527;47.460;19.016;2023-06-22T14:20:51;100339.84;;;33.20;44.27
58757;BME280;44527;47.460;19.016;2023-06-22T14:23:54;100333.19;;;33.10;45.44
58757;BME280;44527;47.460;19.016;2023-06-22T14:26:56;100331.22;;;33.06;44.07
58757;BME280;44527;47.460;19.016;2023-06-22T14:29:59;100334.69;;;33.01;45.06
58757;BME280;44527;47.460;19.016;2023-06-22T14:33:01;100329.16;;;32.96;44.70
58757;BME280;44527;47.460;19.016;2023-06-22T14:36:04;100327.25;;;32.96;44.28
58757;BME280;44527;47.460;19.016;2023-06-22T14:39:07;100317.72;;;32.94;43.65
58757;BME280;44527;47.460;19.016;2023-06-22T14:42:10;100318.31;;;32.79;43.36
58757;BME280;44527;47.460;19.016;2023-06-22T14:45:12;100312.78;;;32.74;44.41
58757;BME280;44527;47.460;19.016;2023-06-22T14:48:16;100312.78;;;32.74;43.13
58757;BME280;44527;47.460;19.016;2023-06-22T14:51:18;100313.47;;;32.64;42.54
58757;BME280;44527;47.460;19.016;2023-06-22T14:54:21;100315.28;;;32.59;44.40
58757;BME280;44527;47.460;19.016;2023-06-22T14:57:23;100325.50;;;32.52;45.01
58757;BME280;44527;47.460;19.016;2023-06-22T15:00:26;100316.25;;;32.36;44.08
58757;BME280;44527;47.460;19.016;2023-06-22T15:03:34;100314.56;;;32.35;45.46
58757;BME280;44527;47.460;19.016;2023-06-22T15:06:38;100308.59;;;32.33;44.86
58757;BME280;44527;47.460;19.016;2023-06-22T15:09:40;100301.47;;;32.15;43.92
58757;BME280;44527;47.460;19.016;2023-06-22T15:12:45;100296.94;;;32.03;44.79
58757;BME280;44527;47.460;19.016;2023-06-22T15:15:48;100290.34;;;32.16;46.00
58757;BME280;44527;47.460;19.016;2023-06-22T15:18:50;100293.50;;;32.25;44.91
58757;BME280;44527;47.460;19.016;2023-06-22T15:21:53;100284.28;;;32.09;45.31
58757;BME280;44527;47.460;19.016;2023-06-22T15:24:55;100285.69;;;32.12;45.41
58757;BME280;44527;47.460;19.016;2023-06-22T15:28:00;100291.03;;;32.23;47.17
58757;BME280;44527;47.460;19.016;2023-06-22T15:31:02;100289.44;;;32.11;45.15
58757;BME280;44527;47.460;19.016;2023-06-22T15:34:05;100294.81;;;32.06;44.42
58757;BME280;44527;47.460;19.016;2023-06-22T15:37:08;100289.53;;;31.99;45.32
58757;BME280;44527;47.460;19.016;2023-06-22T15:40:11;100287.19;;;31.91;46.99
58757;BME280;44527;47.460;19.016;2023-06-22T15:43:14;100283.66;;;31.90;46.21
58757;BME280;44527;47.460;19.016;2023-06-22T15:46:16;100287.22;;;31.79;48.27
58757;BME280;44527;47.460;19.016;2023-06-22T15:49:20;100294.75;;;31.77;48.41